Yalesville, Connecticut
Current Conditions -  °F | °C
As of 5:53 AM on Monday 22 Dec 2014 (Local Time) from KMMK Reporting Station
Overcast Overcast  
Wind Chill: -2°   Ceiling: 1400
Heat Index:   Visibility: 10mi
Dew Point: -1°   Wind: 6mph
Humidity: 85%   Direction: 360°N
Pressure: 30.35"   Gusts: NA
Location:  41.4596°N, 72.818°W
Report Text: KMMK 221053Z AUTO 36005KT 10SM OVC014 01/M01 A3035 RMK AO2 SLP278 T00111011 TSNO
Loading
Personal Weather Stations






























Interactive Weather Map New forecast layout! Learn more

10-Day Weather Forecast

Advertisements
Track Severe Weather on mobile